CYXU

London Airport

London, Ontario, Canada
METAR CYXU 221400Z 24007KT 15SM FEW240 07/M00 A3005 RMK CI2 SLP185
Observed Flight Rules
Oct-22 @ 14:00 UTC (21 minutes ago) Visual Flight Rules
Wind Visibility Clouds
240° at 7 knots 15 miles
  • Few at 24,000' AGL
Temperatures Readings
Current 7°C / 45°F
Dewpoint 0°C / 32°F
Humidity 61%
Altimeter 30.05" Hg
Pressure 1018.5 hPa
Elevation 278
METAR CYXU 221400Z 24007KT 15SM FEW240 07/M00 A3005 RMK CI2 SLP185
Observed Flight Rules
Oct-22 @ 14:00 UTC
(21 minutes ago)
VFR
Wind Visibility
240° at 7 knots 15 miles
Clouds
  • Few at 24,000' AGL
Temperature Dewpoint
7°C / 45°F 0°C / 32°F
Humidity Altimeter Pressure
61% 30.05" Hg 1018.5 hPa